Time;durP1;ratioP1;P1;durP2;ratioP2;P2;SDS_P1;SDS_P2;PMS_P1;PMS_P2;Temp;Humidity;BMP_temperature;BMP_pressure;BME280_temperature;BME280_humidity;BME280_pressure;Samples;Min_cycle;Max_cycle;Signal;HPM_P1;HPM_P2
2021/08/26 00:00:17;;;;;;;7.93;6.13;;;13.90;99.90;;;;;;5053791;28;20471;-70
2021/08/26 00:05:48;;;;;;;9.90;5.90;;;13.90;99.90;;;;;;5053544;28;20505;-68
2021/08/26 00:08:16;;;;;;;6.50;5.50;;;14.00;99.90;;;;;;5052978;28;20550;-68
2021/08/26 00:10:44;;;;;;;10.70;6.90;;;14.00;99.90;;;;;;5053397;28;20460;-68
2021/08/26 00:13:11;;;;;;;7.70;5.40;;;14.00;99.90;;;;;;5053378;28;20470;-68
2021/08/26 00:15:41;;;;;;;8.27;5.90;;;14.00;99.90;;;;;;5053317;28;20851;-68
2021/08/26 00:18:08;;;;;;;9.23;5.60;;;14.00;99.90;;;;;;5052905;28;20522;-68
2021/08/26 00:20:36;;;;;;;9.77;6.63;;;14.10;99.90;;;;;;5052988;28;20459;-68
2021/08/26 00:23:03;;;;;;;6.50;5.30;;;14.10;99.90;;;;;;5053307;28;20816;-68
2021/08/26 00:25:30;;;;;;;11.27;5.90;;;14.10;99.90;;;;;;5052848;28;20843;-68
2021/08/26 00:27:56;;;;;;;8.03;5.70;;;14.10;99.90;;;;;;5051920;28;20479;-68
2021/08/26 00:30:23;;;;;;;8.10;6.17;;;14.10;99.90;;;;;;5052911;28;20467;-69
2021/08/26 00:32:50;;;;;;;8.57;6.60;;;14.10;99.90;;;;;;5053085;28;20451;-68
2021/08/26 00:35:17;;;;;;;7.83;6.00;;;14.10;99.90;;;;;;5052938;28;20471;-68
2021/08/26 00:37:45;;;;;;;7.07;5.40;;;14.10;99.90;;;;;;5052501;28;20533;-68
2021/08/26 00:40:12;;;;;;;6.23;5.63;;;14.10;99.90;;;;;;5052875;28;20463;-68
2021/08/26 00:42:40;;;;;;;7.07;5.63;;;14.10;99.90;;;;;;5053006;28;20973;-68
2021/08/26 00:45:08;;;;;;;8.93;6.10;;;14.00;99.90;;;;;;5052636;28;20990;-68
2021/08/26 00:47:35;;;;;;;6.10;5.47;;;14.00;99.90;;;;;;5052209;28;20487;-68
2021/08/26 00:50:01;;;;;;;8.10;6.03;;;13.90;99.90;;;;;;5052673;28;20843;-68
2021/08/26 00:52:28;;;;;;;7.77;5.47;;;13.90;99.90;;;;;;5052614;28;20464;-68
2021/08/26 00:54:57;;;;;;;7.43;5.40;;;13.90;99.90;;;;;;5052809;28;20459;-68
2021/08/26 00:57:25;;;;;;;9.93;5.83;;;13.90;99.90;;;;;;5051886;28;20982;-68
2021/08/26 00:59:54;;;;;;;7.23;5.50;;;13.90;99.90;;;;;;5075142;22;20495;-91
2021/08/26 01:02:30;;;;;;;8.23;6.17;;;13.80;99.90;;;;;;5046401;28;20459;-92
2021/08/26 01:05:04;;;;;;;7.03;5.27;;;13.80;99.90;;;;;;5054337;28;20455;-91
2021/08/26 01:07:41;;;;;;;10.07;5.57;;;13.80;99.90;;;;;;5053674;28;20486;-92
2021/08/26 01:10:13;;;;;;;7.87;5.03;;;13.80;99.90;;;;;;5054000;28;20850;-92
2021/08/26 01:12:40;;;;;;;9.30;6.00;;;13.70;99.90;;;;;;5053907;28;20470;-92
2021/08/26 01:15:08;;;;;;;7.77;5.40;;;13.70;99.90;;;;;;5054037;28;20467;-91
2021/08/26 01:17:35;;;;;;;7.27;5.23;;;13.60;99.90;;;;;;5053770;28;20462;-92
2021/08/26 01:20:04;;;;;;;6.87;5.20;;;13.50;99.90;;;;;;5054194;28;20489;-92
2021/08/26 01:22:33;;;;;;;6.07;4.63;;;13.40;99.90;;;;;;5053889;28;20474;-92
2021/08/26 01:25:04;;;;;;;7.80;5.40;;;13.30;99.90;;;;;;5054179;28;20497;-91
2021/08/26 01:27:34;;;;;;;5.67;4.70;;;13.20;99.90;;;;;;5053296;28;20483;-92
2021/08/26 01:30:03;;;;;;;9.73;5.93;;;13.20;99.90;;;;;;5054463;28;20483;-92
2021/08/26 01:32:30;;;;;;;7.43;5.67;;;13.10;99.90;;;;;;5053940;28;20469;-92
2021/08/26 01:34:57;;;;;;;7.43;5.83;;;13.10;99.90;;;;;;5054035;28;20463;-93
2021/08/26 01:37:25;;;;;;;7.40;5.43;;;13.10;99.90;;;;;;5053969;28;20459;-92
2021/08/26 01:39:54;;;;;;;6.87;5.70;;;13.10;99.90;;;;;;5054072;28;20858;-91
2021/08/26 01:42:23;;;;;;;6.80;6.07;;;13.10;99.90;;;;;;5053938;28;20474;-94
2021/08/26 01:44:52;;;;;;;9.23;5.33;;;13.10;99.90;;;;;;5053758;28;20467;-92
2021/08/26 01:47:20;;;;;;;8.33;5.67;;;13.10;99.90;;;;;;5053279;28;20490;-91
2021/08/26 01:49:48;;;;;;;7.97;5.37;;;13.10;99.90;;;;;;5053883;28;20487;-92
2021/08/26 01:52:18;;;;;;;8.57;6.10;;;13.00;99.90;;;;;;5053709;28;20463;-92
2021/08/26 01:54:47;;;;;;;8.67;5.97;;;13.00;99.90;;;;;;5053765;28;20467;-92
2021/08/26 01:57:13;;;;;;;8.73;6.03;;;12.90;99.90;;;;;;5056035;28;20803;-90
2021/08/26 01:59:40;;;;;;;8.03;5.30;;;12.90;99.90;;;;;;5054323;28;20497;-92
2021/08/26 02:02:08;;;;;;;7.00;6.20;;;12.90;99.90;;;;;;5053844;28;20486;-92
2021/08/26 02:04:35;;;;;;;6.80;5.60;;;12.90;99.90;;;;;;5053199;28;20482;-92
2021/08/26 02:07:02;;;;;;;7.00;6.00;;;13.00;99.90;;;;;;5053403;28;20555;-91
2021/08/26 02:09:29;;;;;;;8.13;6.10;;;13.00;99.90;;;;;;5053481;28;20854;-93
2021/08/26 02:11:55;;;;;;;9.50;6.03;;;13.00;99.90;;;;;;5053559;28;20456;-91
2021/08/26 02:14:22;;;;;;;11.00;6.67;;;13.00;99.90;;;;;;5054408;28;20460;-93
2021/08/26 02:16:49;;;;;;;7.80;5.63;;;13.00;99.90;;;;;;5054412;28;20452;-91
2021/08/26 02:19:17;;;;;;;8.40;6.07;;;13.10;99.90;;;;;;5053033;28;20480;-92
2021/08/26 02:21:44;;;;;;;5.50;4.90;;;13.00;99.90;;;;;;5052777;28;20830;-92
2021/08/26 02:24:11;;;;;;;8.70;5.23;;;13.00;99.90;;;;;;5052711;28;20459;-92
2021/08/26 02:26:38;;;;;;;8.17;6.37;;;13.00;99.90;;;;;;5052610;28;20483;-91
2021/08/26 02:29:05;;;;;;;9.63;5.87;;;13.00;99.90;;;;;;5052331;28;20533;-92
2021/08/26 02:31:32;;;;;;;7.10;5.47;;;13.00;99.90;;;;;;5052533;28;20467;-92
2021/08/26 02:33:59;;;;;;;7.50;6.33;;;12.90;99.90;;;;;;5052721;28;20478;-92
2021/08/26 02:36:27;;;;;;;9.33;6.17;;;12.90;99.90;;;;;;5052222;28;20976;-91
2021/08/26 02:38:54;;;;;;;6.37;5.27;;;12.80;99.90;;;;;;5052049;28;21042;-91
2021/08/26 02:41:22;;;;;;;7.67;5.90;;;12.70;99.90;;;;;;5052418;28;20463;-93
2021/08/26 02:43:49;;;;;;;8.90;6.00;;;12.70;99.90;;;;;;5051830;28;20967;-92
2021/08/26 02:46:16;;;;;;;6.10;5.50;;;12.60;99.90;;;;;;5052361;28;20459;-92
2021/08/26 02:48:43;;;;;;;8.50;5.33;;;12.60;99.90;;;;;;5051972;28;20851;-92
2021/08/26 02:51:10;;;;;;;6.60;5.10;;;12.50;99.90;;;;;;5052045;28;20473;-93
2021/08/26 02:53:38;;;;;;;9.43;5.70;;;12.40;99.90;;;;;;5051887;28;20205;-91
2021/08/26 02:56:05;;;;;;;11.27;6.50;;;12.40;99.90;;;;;;5052413;28;20463;-92
2021/08/26 02:58:32;;;;;;;8.47;5.90;;;12.40;99.90;;;;;;5051650;28;20491;-91
2021/08/26 03:00:59;;;;;;;6.40;5.80;;;12.30;99.90;;;;;;5052673;28;20549;-92
2021/08/26 03:03:25;;;;;;;7.57;5.23;;;12.30;99.90;;;;;;5052082;28;20470;-92
2021/08/26 03:05:52;;;;;;;6.47;5.63;;;12.30;99.90;;;;;;5052342;28;20996;-92
2021/08/26 03:08:19;;;;;;;8.20;5.97;;;12.30;99.90;;;;;;5051741;28;20483;-93
2021/08/26 03:10:47;;;;;;;7.43;5.80;;;12.40;99.90;;;;;;5052658;28;20468;-91
2021/08/26 03:13:14;;;;;;;7.10;5.33;;;12.40;99.90;;;;;;5052375;28;20459;-92
2021/08/26 03:15:41;;;;;;;8.40;5.90;;;12.40;99.90;;;;;;5052436;28;20956;-91
2021/08/26 03:18:07;;;;;;;9.87;6.20;;;12.50;99.90;;;;;;5051934;28;20953;-93
2021/08/26 03:20:35;;;;;;;8.00;6.10;;;12.60;99.90;;;;;;5052380;28;20469;-92
2021/08/26 03:23:02;;;;;;;9.10;6.10;;;12.60;99.90;;;;;;5052622;28;21103;-92
2021/08/26 03:25:28;;;;;;;6.73;5.80;;;12.70;99.90;;;;;;5052041;28;20455;-93
2021/08/26 03:27:56;;;;;;;7.97;5.37;;;12.70;99.90;;;;;;5051674;28;20489;-91
2021/08/26 03:30:23;;;;;;;10.60;5.93;;;12.80;99.90;;;;;;5052645;28;20460;-93
2021/08/26 03:32:50;;;;;;;8.47;6.50;;;12.80;99.90;;;;;;5054721;28;20681;-93
2021/08/26 03:35:17;;;;;;;8.53;6.33;;;12.80;99.90;;;;;;5055413;28;20463;-93
2021/08/26 03:37:44;;;;;;;7.50;5.90;;;12.90;99.90;;;;;;5056062;28;20451;-93
2021/08/26 03:40:12;;;;;;;8.13;6.40;;;12.90;99.90;;;;;;5054748;28;20475;-93
2021/08/26 03:42:38;;;;;;;7.87;6.87;;;12.90;99.90;;;;;;5052722;28;20470;-92
2021/08/26 03:45:08;;;;;;;8.67;6.03;;;12.90;99.90;;;;;;5055624;28;20458;-93
2021/08/26 03:47:35;;;;;;;9.73;5.90;;;12.90;99.90;;;;;;5057990;28;20487;-93
2021/08/26 03:50:03;;;;;;;8.40;6.03;;;12.90;99.90;;;;;;5058082;28;20475;-92
2021/08/26 03:52:29;;;;;;;5.73;5.17;;;12.90;99.90;;;;;;5055309;28;20459;-92
2021/08/26 03:54:56;;;;;;;7.80;6.40;;;12.90;99.90;;;;;;5054162;28;20471;-90
2021/08/26 03:57:23;;;;;;;8.80;6.10;;;13.00;99.90;;;;;;5053718;28;20197;-91
2021/08/26 03:59:50;;;;;;;7.40;6.03;;;13.00;99.90;;;;;;5050015;28;20483;-92
2021/08/26 04:02:18;;;;;;;9.40;6.40;;;13.10;99.90;;;;;;5054095;28;20462;-91
2021/08/26 04:04:44;;;;;;;8.57;6.20;;;13.10;99.90;;;;;;5055865;28;20968;-92
2021/08/26 04:07:12;;;;;;;8.33;5.80;;;13.10;99.90;;;;;;5057104;28;20494;-91
2021/08/26 04:09:39;;;;;;;8.80;6.50;;;13.10;99.90;;;;;;5063755;28;20482;-92
2021/08/26 04:12:06;;;;;;;7.70;5.77;;;13.10;99.90;;;;;;5062924;28;20470;-91
2021/08/26 04:14:32;;;;;;;7.90;6.30;;;13.10;99.90;;;;;;5064763;28;20956;-92
2021/08/26 04:16:59;;;;;;;8.10;6.00;;;13.10;99.90;;;;;;5065120;28;20991;-93
2021/08/26 04:19:27;;;;;;;8.53;5.80;;;13.00;99.90;;;;;;5060435;28;20482;-91
2021/08/26 04:21:54;;;;;;;6.10;5.33;;;13.00;99.90;;;;;;5059581;28;20464;-91
2021/08/26 04:24:21;;;;;;;6.10;5.50;;;13.00;99.90;;;;;;5059960;28;20471;-92
2021/08/26 04:26:48;;;;;;;5.90;4.80;;;13.00;99.90;;;;;;5061369;28;20455;-91
2021/08/26 04:29:15;;;;;;;12.70;5.97;;;13.00;99.90;;;;;;5061967;28;20483;-91
2021/08/26 04:31:41;;;;;;;7.70;6.40;;;13.00;99.90;;;;;;5061786;28;20455;-90
2021/08/26 04:34:08;;;;;;;8.17;5.53;;;13.00;99.90;;;;;;5061140;28;20455;-91
2021/08/26 04:36:36;;;;;;;8.33;5.73;;;13.00;99.90;;;;;;5060672;28;20456;-92
2021/08/26 04:39:03;;;;;;;6.40;5.50;;;13.00;99.90;;;;;;5064092;28;20475;-91
2021/08/26 04:41:30;;;;;;;7.97;5.67;;;13.00;99.90;;;;;;5073410;28;20451;-91
2021/08/26 04:43:57;;;;;;;6.93;6.00;;;13.00;99.90;;;;;;5066248;28;20458;-91
2021/08/26 04:46:23;;;;;;;8.00;6.00;;;13.00;99.90;;;;;;5058169;28;20486;-91
2021/08/26 04:48:50;;;;;;;6.33;5.30;;;13.00;99.90;;;;;;5054580;28;20503;-91
2021/08/26 04:51:17;;;;;;;6.60;5.73;;;13.00;99.90;;;;;;5055174;28;20463;-92
2021/08/26 04:53:45;;;;;;;5.97;5.37;;;13.00;99.90;;;;;;5054902;28;20463;-92
2021/08/26 04:56:11;;;;;;;7.17;5.70;;;13.00;99.90;;;;;;5055401;28;20476;-91
2021/08/26 04:58:39;;;;;;;7.80;6.00;;;13.10;99.90;;;;;;5054837;28;20818;-90
2021/08/26 05:01:06;;;;;;;9.80;5.83;;;13.00;99.90;;;;;;5055020;28;20502;-90
2021/08/26 05:03:32;;;;;;;6.47;5.30;;;13.10;99.90;;;;;;5055041;28;20470;-91
2021/08/26 05:05:59;;;;;;;7.70;6.13;;;13.10;99.90;;;;;;5054814;28;20459;-91
2021/08/26 05:08:26;;;;;;;6.70;6.00;;;13.10;99.90;;;;;;5054233;28;20487;-91
2021/08/26 05:10:54;;;;;;;8.60;5.70;;;13.10;99.90;;;;;;5054562;28;20464;-91
2021/08/26 05:13:20;;;;;;;10.70;5.93;;;13.10;99.90;;;;;;5054015;28;20945;-91
2021/08/26 05:15:47;;;;;;;9.63;6.00;;;13.20;99.90;;;;;;5055049;28;20466;-91
2021/08/26 05:18:14;;;;;;;8.63;6.23;;;13.20;99.90;;;;;;5054484;28;20979;-91
2021/08/26 05:20:41;;;;;;;8.60;6.50;;;13.20;99.90;;;;;;5055540;28;20463;-91
2021/08/26 05:23:08;;;;;;;9.13;6.63;;;13.30;99.90;;;;;;5054807;28;20462;-91
2021/08/26 05:25:34;;;;;;;8.20;5.83;;;13.30;99.90;;;;;;5055039;28;20466;-91
2021/08/26 05:28:02;;;;;;;6.63;5.60;;;13.30;99.90;;;;;;5054856;28;20996;-91
2021/08/26 05:30:29;;;;;;;6.10;5.50;;;13.30;99.90;;;;;;5054985;28;20471;-91
2021/08/26 05:32:57;;;;;;;8.30;5.93;;;13.30;99.90;;;;;;5054029;28;20459;-90
2021/08/26 05:35:24;;;;;;;7.37;5.70;;;13.40;99.90;;;;;;5054690;28;20467;-91
2021/08/26 05:37:51;;;;;;;7.97;6.37;;;13.40;99.90;;;;;;5054348;28;20466;-91
2021/08/26 05:40:17;;;;;;;8.93;6.10;;;13.40;99.90;;;;;;5054320;28;20506;-91
2021/08/26 05:42:44;;;;;;;6.33;5.37;;;13.40;99.90;;;;;;5054586;28;20462;-91
2021/08/26 05:45:12;;;;;;;10.00;6.53;;;13.50;99.90;;;;;;5054165;28;20995;-91
2021/08/26 05:47:39;;;;;;;6.33;5.33;;;13.50;99.90;;;;;;5054361;28;20524;-90
2021/08/26 05:50:07;;;;;;;7.40;5.67;;;13.50;99.90;;;;;;5053952;28;20483;-91
2021/08/26 05:52:34;;;;;;;8.60;6.00;;;13.60;99.90;;;;;;5054599;28;20495;-91
2021/08/26 05:55:00;;;;;;;7.60;5.83;;;13.60;99.90;;;;;;5054118;28;20851;-92
2021/08/26 05:57:27;;;;;;;7.57;6.47;;;13.60;99.90;;;;;;5054155;28;20467;-91
2021/08/26 05:59:54;;;;;;;6.70;5.60;;;13.70;99.90;;;;;;5054102;28;20560;-91
2021/08/26 06:02:22;;;;;;;6.30;5.40;;;13.70;99.90;;;;;;5053806;28;20464;-91
2021/08/26 06:04:49;;;;;;;6.00;5.40;;;13.80;99.90;;;;;;5053597;28;20452;-91
2021/08/26 06:07:15;;;;;;;7.03;5.60;;;13.80;99.90;;;;;;5052757;28;20459;-91
2021/08/26 06:09:42;;;;;;;7.00;6.10;;;13.80;99.90;;;;;;5052395;28;20484;-91
2021/08/26 06:12:09;;;;;;;7.43;5.87;;;13.90;99.90;;;;;;5052228;28;20475;-91
2021/08/26 06:14:35;;;;;;;10.83;6.37;;;13.90;99.90;;;;;;5052401;28;20474;-91
2021/08/26 06:17:02;;;;;;;9.30;6.17;;;13.90;99.90;;;;;;5052752;28;20467;-91
2021/08/26 06:19:30;;;;;;;9.67;6.70;;;13.90;99.90;;;;;;5053626;28;20479;-92
2021/08/26 06:21:57;;;;;;;7.63;6.20;;;13.90;99.90;;;;;;5053501;28;20468;-91
2021/08/26 06:24:24;;;;;;;9.00;6.30;;;14.00;99.90;;;;;;5053305;28;20467;-91
2021/08/26 06:26:50;;;;;;;7.47;6.57;;;14.00;99.90;;;;;;5052906;28;20470;-92
2021/08/26 06:29:19;;;;;;;10.57;6.37;;;14.00;99.90;;;;;;5053001;28;20490;-92
2021/08/26 06:31:47;;;;;;;8.10;6.30;;;14.10;99.90;;;;;;5053257;28;20913;-91
2021/08/26 06:34:13;;;;;;;7.63;5.53;;;14.00;99.90;;;;;;5053525;28;20470;-91
2021/08/26 06:36:42;;;;;;;7.83;5.83;;;14.10;99.90;;;;;;5053858;28;20475;-91
2021/08/26 06:39:08;;;;;;;7.57;5.20;;;14.10;99.90;;;;;;5052348;28;20992;-91
2021/08/26 06:41:35;;;;;;;9.30;6.00;;;14.10;99.90;;;;;;5053345;28;20878;-91
2021/08/26 06:44:02;;;;;;;9.70;5.90;;;14.10;99.90;;;;;;5053955;28;20807;-91
2021/08/26 06:46:28;;;;;;;6.07;5.40;;;14.10;99.90;;;;;;5052063;28;20465;-91
2021/08/26 06:48:55;;;;;;;7.73;5.70;;;14.10;99.90;;;;;;5051624;28;20491;-91
2021/08/26 06:51:22;;;;;;;7.50;5.90;;;14.10;99.90;;;;;;5051922;28;20566;-91
2021/08/26 06:53:50;;;;;;;6.00;4.83;;;14.10;99.90;;;;;;5051717;28;20482;-91
2021/08/26 06:56:17;;;;;;;5.97;5.10;;;14.10;99.90;;;;;;5052109;28;20832;-91
2021/08/26 07:01:18;;;;;;;6.77;5.20;;;14.10;99.90;;;;;;5008768;28;20535;-70
2021/08/26 07:03:45;;;;;;;8.37;6.40;;;14.10;99.90;;;;;;5010751;28;20996;-70
2021/08/26 07:06:11;;;;;;;7.90;5.80;;;14.10;99.90;;;;;;5010503;28;20492;-69
2021/08/26 07:08:38;;;;;;;9.37;5.50;;;14.10;99.90;;;;;;5010193;28;20492;-70
2021/08/26 07:11:06;;;;;;;6.63;5.50;;;14.10;99.90;;;;;;5010573;28;20457;-70
2021/08/26 07:13:33;;;;;;;10.63;5.97;;;14.10;99.90;;;;;;5010716;28;20462;-70
2021/08/26 07:15:59;;;;;;;8.10;6.00;;;14.10;99.90;;;;;;5010644;28;20472;-70
2021/08/26 07:18:28;;;;;;;7.40;6.30;;;14.20;99.90;;;;;;5010206;28;20461;-70
2021/08/26 07:20:55;;;;;;;8.53;6.67;;;14.20;99.90;;;;;;5010684;28;20535;-70
2021/08/26 07:23:21;;;;;;;6.87;6.13;;;14.20;99.90;;;;;;5010661;28;20469;-69
2021/08/26 07:25:49;;;;;;;8.53;6.73;;;14.20;99.90;;;;;;5010712;28;20588;-70
2021/08/26 07:28:17;;;;;;;10.43;7.10;;;14.20;99.90;;;;;;5009947;28;20484;-70
2021/08/26 07:30:43;;;;;;;10.33;7.33;;;14.20;99.90;;;;;;5010769;28;20966;-70
2021/08/26 07:33:10;;;;;;;9.03;7.40;;;14.20;99.90;;;;;;5010468;28;20464;-69
2021/08/26 07:35:37;;;;;;;9.60;7.23;;;14.20;99.90;;;;;;5010776;28;20860;-70
2021/08/26 07:38:03;;;;;;;10.10;5.97;;;14.20;99.90;;;;;;5013465;28;20484;-69
2021/08/26 07:40:30;;;;;;;10.80;6.43;;;14.20;99.90;;;;;;5014390;28;20465;-70
2021/08/26 07:42:57;;;;;;;9.13;6.83;;;14.30;99.90;;;;;;5014031;28;20460;-69
2021/08/26 07:45:25;;;;;;;8.53;6.90;;;14.30;99.90;;;;;;5014391;28;20971;-69
2021/08/26 07:47:51;;;;;;;9.17;7.13;;;14.30;99.90;;;;;;5013419;28;20481;-70
2021/08/26 07:50:20;;;;;;;8.90;7.30;;;14.30;99.90;;;;;;5014168;28;20488;-70
2021/08/26 07:52:46;;;;;;;11.10;6.50;;;14.40;99.90;;;;;;5014108;28;20452;-69
2021/08/26 07:55:13;;;;;;;10.03;7.40;;;14.40;99.90;;;;;;5013770;28;20468;-69
2021/08/26 07:57:40;;;;;;;7.53;6.20;;;14.40;99.90;;;;;;5013612;28;20484;-69
2021/08/26 08:00:08;;;;;;;8.73;6.47;;;14.50;99.90;;;;;;5013754;28;20465;-69
2021/08/26 08:02:36;;;;;;;7.30;5.70;;;14.50;99.90;;;;;;5013910;28;20461;-70
2021/08/26 08:05:03;;;;;;;7.90;6.80;;;14.50;99.90;;;;;;5013648;28;20461;-69
2021/08/26 08:07:30;;;;;;;10.47;7.80;;;14.60;99.90;;;;;;5013381;28;21180;-70
2021/08/26 08:09:57;;;;;;;7.27;6.37;;;14.60;99.90;;;;;;5013727;28;20493;-70
2021/08/26 08:12:23;;;;;;;12.70;8.50;;;14.70;99.90;;;;;;5013219;28;20464;-69
2021/08/26 08:14:50;;;;;;;9.73;7.23;;;14.70;99.90;;;;;;5013396;28;20853;-70
2021/08/26 08:17:17;;;;;;;7.03;6.33;;;14.80;99.90;;;;;;5013471;28;20484;-69
2021/08/26 08:19:45;;;;;;;10.43;8.10;;;14.80;99.90;;;;;;5013551;28;20462;-70
2021/08/26 08:22:11;;;;;;;11.67;8.30;;;14.80;99.90;;;;;;5013532;28;20831;-70
2021/08/26 08:24:40;;;;;;;8.60;6.80;;;14.90;99.90;;;;;;5013517;28;20468;-69
2021/08/26 08:27:07;;;;;;;10.33;7.77;;;14.80;99.90;;;;;;5013131;28;20491;-70
2021/08/26 08:29:33;;;;;;;7.97;6.73;;;14.90;99.90;;;;;;5012879;28;20857;-70
2021/08/26 08:32:00;;;;;;;9.80;7.20;;;14.90;99.90;;;;;;5013234;28;20468;-69
2021/08/26 08:34:27;;;;;;;7.63;6.47;;;14.90;99.90;;;;;;5013482;28;20723;-70
2021/08/26 08:36:55;;;;;;;10.33;7.63;;;14.90;99.90;;;;;;5012920;28;20496;-70
2021/08/26 08:39:22;;;;;;;8.57;6.73;;;14.90;99.90;;;;;;5012932;28;20464;-70
2021/08/26 08:41:48;;;;;;;8.90;6.17;;;14.90;99.90;;;;;;5012970;28;20508;-70
2021/08/26 08:44:15;;;;;;;9.43;7.53;;;14.90;99.90;;;;;;5013219;28;20830;-70
2021/08/26 08:46:47;;;;;;;11.80;7.50;;;14.90;99.90;;;;;;5013271;28;20488;-70
2021/08/26 08:49:18;;;;;;;8.60;7.70;;;14.90;99.90;;;;;;5011801;28;20489;-70
2021/08/26 08:51:45;;;;;;;8.63;7.63;;;14.90;99.90;;;;;;5012940;28;20527;-70
2021/08/26 08:54:13;;;;;;;9.60;7.80;;;14.80;99.90;;;;;;5012782;28;20461;-70
2021/08/26 08:56:40;;;;;;;10.60;9.20;;;14.80;99.90;;;;;;5012829;28;20858;-70
2021/08/26 08:59:07;;;;;;;10.10;7.97;;;14.70;99.90;;;;;;5012217;28;20812;-70
2021/08/26 09:01:33;;;;;;;10.50;9.40;;;14.70;99.90;;;;;;5012791;28;20469;-70
2021/08/26 09:04:00;;;;;;;10.03;8.30;;;14.70;99.90;;;;;;5012869;28;20936;-70
2021/08/26 09:06:39;;;;;;;10.30;8.83;;;14.70;99.90;;;;;;5013180;28;20485;-70
2021/08/26 09:09:07;;;;;;;12.60;10.40;;;14.70;99.90;;;;;;5012202;28;20583;-69
2021/08/26 09:11:35;;;;;;;11.47;9.00;;;14.60;99.90;;;;;;5012708;28;20860;-69
2021/08/26 09:14:10;;;;;;;13.60;10.27;;;14.60;99.90;;;;;;5012416;28;20965;-70
2021/08/26 09:16:39;;;;;;;9.53;8.53;;;14.60;99.90;;;;;;5012479;28;20883;-70
2021/08/26 09:19:29;;;;;;;10.40;9.30;;;14.60;99.90;;;;;;5012123;28;20488;-70
2021/08/26 09:21:56;;;;;;;10.73;8.67;;;14.70;99.90;;;;;;5012381;28;20474;-70
2021/08/26 09:24:23;;;;;;;13.77;11.30;;;14.70;99.90;;;;;;5012348;28;20465;-69
2021/08/26 09:26:53;;;;;;;12.10;10.17;;;14.70;99.90;;;;;;5012101;28;20481;-70
2021/08/26 09:29:20;;;;;;;10.50;9.40;;;14.70;99.90;;;;;;5011966;28;20485;-70
2021/08/26 09:31:46;;;;;;;13.03;10.03;;;14.70;99.90;;;;;;5011852;28;20488;-70
2021/08/26 09:34:16;;;;;;;12.03;9.97;;;14.80;99.90;;;;;;5012366;28;20496;-70
2021/08/26 09:36:54;;;;;;;11.17;9.97;;;14.80;99.90;;;;;;5011932;28;20489;-70
2021/08/26 09:39:23;;;;;;;11.30;10.20;;;14.80;99.90;;;;;;5012083;28;20484;-70
2021/08/26 09:41:53;;;;;;;12.40;10.33;;;14.90;99.90;;;;;;5011828;28;20598;-70
2021/08/26 09:44:21;;;;;;;13.23;9.30;;;14.90;99.90;;;;;;5012117;28;20461;-70
2021/08/26 09:46:51;;;;;;;11.37;9.57;;;14.80;99.90;;;;;;5011550;28;20485;-70
2021/08/26 09:49:19;;;;;;;10.03;8.90;;;14.90;99.90;;;;;;5011443;28;20485;-69
2021/08/26 09:52:03;;;;;;;10.13;9.03;;;14.80;99.90;;;;;;5011693;28;20961;-69
2021/08/26 09:54:35;;;;;;;8.20;7.40;;;14.80;99.90;;;;;;5011800;28;20862;-70
2021/08/26 09:57:05;;;;;;;9.57;7.20;;;14.80;99.90;;;;;;5011863;28;20481;-69
2021/08/26 09:59:49;;;;;;;9.50;7.33;;;14.80;99.90;;;;;;5010296;28;20465;-69
2021/08/26 10:02:17;;;;;;;6.87;6.27;;;14.80;99.90;;;;;;5011864;28;20991;-70
2021/08/26 10:04:44;;;;;;;5.53;5.03;;;14.80;99.90;;;;;;5011317;28;20461;-69
2021/08/26 10:07:10;;;;;;;5.70;5.17;;;14.80;99.90;;;;;;5011509;28;20488;-68
2021/08/26 10:09:40;;;;;;;5.63;5.07;;;14.80;99.90;;;;;;5010944;28;21022;-69
2021/08/26 10:12:11;;;;;;;4.80;4.30;;;14.80;99.90;;;;;;5011593;28;20835;-70
2021/08/26 10:14:38;;;;;;;5.60;4.13;;;14.80;99.90;;;;;;5011364;28;20469;-69
2021/08/26 10:17:05;;;;;;;5.30;4.70;;;14.80;99.90;;;;;;5011375;28;20496;-70
2021/08/26 10:19:31;;;;;;;4.80;4.40;;;14.70;99.90;;;;;;5010709;28;20837;-69
2021/08/26 10:21:59;;;;;;;5.10;4.60;;;14.70;99.90;;;;;;5011449;28;20461;-69
2021/08/26 10:24:25;;;;;;;4.97;4.50;;;14.70;99.90;;;;;;5011204;28;20473;-69
2021/08/26 10:26:55;;;;;;;4.50;4.10;;;14.70;99.90;;;;;;5011196;28;20488;-70
2021/08/26 10:29:24;;;;;;;4.63;3.63;;;14.70;99.90;;;;;;5010757;28;20477;-69
2021/08/26 10:31:56;;;;;;;2.87;2.67;;;14.70;99.90;;;;;;5010892;28;20465;-70
2021/08/26 10:34:25;;;;;;;2.63;2.43;;;14.60;99.90;;;;;;5011249;28;20464;-69
2021/08/26 10:37:20;;;;;;;3.43;2.80;;;14.60;99.90;;;;;;5010986;28;20523;-69
2021/08/26 10:39:48;;;;;;;3.20;2.90;;;14.70;99.90;;;;;;5011366;28;20500;-69
2021/08/26 10:42:54;;;;;;;2.33;2.13;;;14.60;99.90;;;;;;5010857;28;20472;-69
2021/08/26 10:45:26;;;;;;;2.93;2.67;;;14.60;99.90;;;;;;5011196;28;20472;-69
2021/08/26 10:48:17;;;;;;;2.43;2.23;;;14.60;99.90;;;;;;5010096;28;21039;-69
2021/08/26 10:50:48;;;;;;;2.73;2.40;;;14.50;99.90;;;;;;5011391;28;20489;-69
2021/08/26 10:53:26;;;;;;;9.77;2.30;;;14.40;99.90;;;;;;5010833;28;20461;-69
2021/08/26 10:55:53;;;;;;;2.63;2.43;;;14.40;99.90;;;;;;5011081;28;20992;-69
2021/08/26 10:58:39;;;;;;;3.40;3.10;;;14.50;99.90;;;;;;5010277;28;20465;-69
2021/08/26 11:01:10;;;;;;;3.57;3.27;;;14.50;99.90;;;;;;5010975;28;20972;-69
2021/08/26 11:03:53;;;;;;;5.90;5.00;;;14.60;99.90;;;;;;5010577;28;20458;-69
2021/08/26 11:06:42;;;;;;;4.07;3.67;;;14.70;99.90;;;;;;5010944;28;20481;-69
2021/08/26 11:09:37;;;;;;;4.70;4.20;;;14.80;99.90;;;;;;5010228;28;20855;-69
2021/08/26 11:12:25;;;;;;;5.70;5.10;;;14.90;99.90;;;;;;5013068;28;20472;-69
2021/08/26 11:15:02;;;;;;;5.80;4.63;;;15.10;99.90;;;;;;5014769;28;20472;-69
2021/08/26 11:17:36;;;;;;;6.13;4.77;;;15.20;99.90;;;;;;5014477;28;20484;-69
2021/08/26 11:20:28;;;;;;;6.60;5.10;;;15.40;99.90;;;;;;5014563;28;20523;-69
2021/08/26 11:23:11;;;;;;;6.37;5.77;;;15.80;99.90;;;;;;5014506;28;20485;-69
2021/08/26 11:25:38;;;;;;;6.70;5.33;;;16.20;99.90;;;;;;5014346;28;20457;-69
2021/08/26 11:28:30;;;;;;;7.20;5.53;;;16.50;99.90;;;;;;5014333;28;20481;-69
2021/08/26 11:31:20;;;;;;;6.20;5.10;;;16.70;99.90;;;;;;5014364;28;20499;-69
2021/08/26 11:33:49;;;;;;;6.63;5.50;;;16.90;99.90;;;;;;5014409;28;20461;-69
2021/08/26 11:36:18;;;;;;;7.17;5.50;;;17.00;99.90;;;;;;5014269;28;20485;-69
2021/08/26 11:38:51;;;;;;;5.13;4.53;;;17.10;99.90;;;;;;5013829;28;20888;-69
2021/08/26 11:41:17;;;;;;;5.80;5.20;;;17.10;99.90;;;;;;5014282;28;20464;-69
2021/08/26 11:43:45;;;;;;;5.10;4.50;;;17.10;99.90;;;;;;5014195;28;20457;-69
2021/08/26 11:46:14;;;;;;;8.37;4.90;;;17.00;99.90;;;;;;5014177;28;20877;-69
2021/08/26 11:48:53;;;;;;;6.37;5.70;;;16.90;99.90;;;;;;5013657;28;20467;-69
2021/08/26 11:51:26;;;;;;;6.57;5.37;;;16.80;99.90;;;;;;5014020;28;20485;-72
2021/08/26 11:53:53;;;;;;;5.83;5.10;;;16.70;99.90;;;;;;5014010;28;20976;-69
2021/08/26 11:56:20;;;;;;;6.03;4.80;;;16.70;99.90;;;;;;5014211;28;20492;-69
2021/08/26 11:58:46;;;;;;;7.80;4.90;;;16.60;99.90;;;;;;5013381;28;20845;-69
2021/08/26 12:01:21;;;;;;;5.93;5.30;;;16.50;99.90;;;;;;5013872;28;20476;-69
2021/08/26 12:03:54;;;;;;;5.87;5.10;;;16.50;99.90;;;;;;5013506;28;20540;-69
2021/08/26 12:06:21;;;;;;;5.27;4.77;;;16.50;99.90;;;;;;5013992;28;20481;-69
2021/08/26 12:08:49;;;;;;;5.53;4.90;;;16.40;99.90;;;;;;5013078;28;20457;-70
2021/08/26 12:11:25;;;;;;;6.80;5.40;;;16.40;99.90;;;;;;5013929;28;20492;-69
2021/08/26 12:14:05;;;;;;;5.50;4.87;;;16.40;99.90;;;;;;5013554;28;20488;-69
2021/08/26 12:16:32;;;;;;;7.77;4.63;;;16.40;99.90;;;;;;5013617;28;20476;-69
2021/08/26 12:19:00;;;;;;;6.40;5.10;;;16.40;99.90;;;;;;5013046;28;20844;-69
2021/08/26 12:21:27;;;;;;;6.30;5.60;;;16.40;99.90;;;;;;5013597;28;20821;-69
2021/08/26 12:23:54;;;;;;;6.30;4.90;;;16.40;99.90;;;;;;5012127;28;20853;-70
2021/08/26 12:26:21;;;;;;;8.83;5.53;;;16.30;99.90;;;;;;5013599;28;20488;-70
2021/08/26 12:28:51;;;;;;;6.57;5.43;;;16.20;99.90;;;;;;5012779;28;20488;-69
2021/08/26 12:31:19;;;;;;;8.73;5.70;;;16.20;99.90;;;;;;5013380;28;21020;-69
2021/08/26 12:34:05;;;;;;;6.17;5.53;;;16.10;99.90;;;;;;5013385;28;20464;-69
2021/08/26 12:36:35;;;;;;;6.50;5.27;;;16.20;99.90;;;;;;5013261;28;20485;-69
2021/08/26 12:39:03;;;;;;;4.83;4.43;;;16.20;99.90;;;;;;5013150;28;20883;-69
2021/08/26 12:41:30;;;;;;;7.63;6.67;;;16.40;99.90;;;;;;5012915;28;20457;-69
2021/08/26 12:43:58;;;;;;;6.20;5.60;;;16.50;99.90;;;;;;5013096;28;20469;-69
2021/08/26 12:46:27;;;;;;;6.83;5.73;;;16.60;99.90;;;;;;5012854;28;20481;-69
2021/08/26 12:49:09;;;;;;;7.23;5.40;;;16.70;99.90;;;;;;5012632;28;20465;-69
2021/08/26 12:51:36;;;;;;;7.20;5.30;;;16.70;99.90;;;;;;5012554;28;20899;-69
2021/08/26 12:54:14;;;;;;;7.40;6.10;;;16.60;99.90;;;;;;5013084;28;20889;-69
2021/08/26 12:56:47;;;;;;;8.03;5.77;;;16.60;99.90;;;;;;5012625;28;20488;-69
2021/08/26 13:01:43;;;;;;;8.13;5.80;;;16.60;99.90;;;;;;5030317;28;20522;-67